Time;durP1;ratioP1;P1;durP2;ratioP2;P2;SDS_P1;SDS_P2;PMS_P1;PMS_P2;Temp;Humidity;BMP_temperature;BMP_pressure;BME280_temperature;BME280_humidity;BME280_pressure;Samples;Min_cycle;Max_cycle;Signal;HPM_P1;HPM_P2
2021/05/05 00:01:13;;;;;;;6.60;1.93;;;9.10;99.90;;;;;;6193860;22;20175;-71
2021/05/05 00:03:39;;;;;;;3.27;1.60;;;9.10;99.90;;;;;;6187145;23;20402;-70
2021/05/05 00:06:05;;;;;;;3.00;1.80;;;9.10;99.90;;;;;;6194485;23;20266;-70
2021/05/05 00:08:30;;;;;;;6.10;1.90;;;9.10;99.90;;;;;;6202186;23;20160;-70
2021/05/05 00:10:58;;;;;;;2.03;1.40;;;9.10;99.90;;;;;;6196004;23;20539;-71
2021/05/05 00:13:24;;;;;;;4.73;1.60;;;9.10;99.90;;;;;;6200563;23;20199;-71
2021/05/05 00:15:51;;;;;;;2.33;1.30;;;9.10;99.90;;;;;;6202173;23;20586;-70
2021/05/05 00:18:20;;;;;;;3.70;1.30;;;9.10;99.90;;;;;;6200772;23;20498;-69
2021/05/05 00:20:45;;;;;;;2.30;1.10;;;9.10;99.90;;;;;;6202642;23;20609;-69
2021/05/05 00:23:11;;;;;;;3.20;1.20;;;9.00;99.90;;;;;;6194632;23;20615;-70
2021/05/05 00:25:36;;;;;;;1.73;1.10;;;9.10;99.90;;;;;;6196562;22;20176;-70
2021/05/05 00:28:04;;;;;;;3.17;1.20;;;9.10;99.90;;;;;;6200894;22;20180;-71
2021/05/05 00:30:31;;;;;;;3.60;1.30;;;9.10;99.90;;;;;;6202635;23;20209;-72
2021/05/05 00:32:59;;;;;;;2.93;1.47;;;9.00;99.90;;;;;;6196690;23;20626;-70
2021/05/05 00:35:25;;;;;;;4.40;1.20;;;8.90;99.90;;;;;;6198075;23;20606;-70
2021/05/05 00:37:50;;;;;;;2.67;1.10;;;9.00;99.90;;;;;;6196656;23;20547;-71
2021/05/05 00:40:16;;;;;;;3.47;1.33;;;9.00;99.90;;;;;;6198327;23;20476;-70
2021/05/05 00:42:42;;;;;;;2.90;1.20;;;9.00;99.90;;;;;;6199798;22;20871;-70
2021/05/05 00:45:12;;;;;;;5.10;1.67;;;9.00;99.90;;;;;;6169571;23;20591;-72
2021/05/05 00:47:39;;;;;;;3.10;1.70;;;9.00;99.90;;;;;;6174971;23;20168;-70
2021/05/05 00:50:07;;;;;;;3.53;1.60;;;9.00;99.90;;;;;;6169973;23;20559;-71
2021/05/05 00:52:33;;;;;;;2.30;1.40;;;9.00;99.90;;;;;;6199433;23;20618;-70
2021/05/05 00:54:58;;;;;;;4.10;1.73;;;8.90;99.90;;;;;;6169954;22;21611;-71
2021/05/05 00:57:26;;;;;;;1.50;1.40;;;8.90;99.90;;;;;;6172395;23;20164;-71
2021/05/05 00:59:52;;;;;;;4.77;1.50;;;8.90;99.90;;;;;;6199244;23;20616;-70
2021/05/05 01:02:18;;;;;;;3.33;1.60;;;9.00;99.90;;;;;;6202300;22;20698;-71
2021/05/05 01:04:44;;;;;;;2.87;1.43;;;9.00;99.90;;;;;;6172265;22;20200;-70
2021/05/05 01:07:10;;;;;;;3.03;1.30;;;9.00;99.90;;;;;;6174460;22;20583;-72
2021/05/05 01:09:38;;;;;;;4.67;1.40;;;9.00;99.90;;;;;;6171002;23;20251;-70
2021/05/05 01:12:05;;;;;;;3.97;1.73;;;9.00;99.90;;;;;;6175985;23;20532;-71
2021/05/05 01:14:30;;;;;;;4.67;1.67;;;9.00;99.90;;;;;;6198288;23;20636;-70
2021/05/05 01:16:56;;;;;;;2.07;1.40;;;9.00;99.90;;;;;;6198663;23;20575;-70
2021/05/05 01:19:21;;;;;;;3.27;1.63;;;9.00;99.90;;;;;;6198805;23;20156;-71
2021/05/05 01:21:47;;;;;;;3.77;1.37;;;9.10;99.90;;;;;;6174116;23;20580;-70
2021/05/05 01:24:13;;;;;;;5.67;3.03;;;9.00;99.90;;;;;;6170617;22;20283;-69
2021/05/05 01:26:43;;;;;;;4.17;1.67;;;9.00;99.90;;;;;;6195332;23;20179;-70
2021/05/05 01:29:10;;;;;;;1.93;1.60;;;9.00;99.90;;;;;;6198027;23;20195;-70
2021/05/05 01:31:39;;;;;;;3.03;1.40;;;9.00;99.90;;;;;;6197241;23;20551;-70
2021/05/05 01:34:04;;;;;;;2.80;1.23;;;9.00;99.90;;;;;;6197764;23;20655;-71
2021/05/05 01:36:33;;;;;;;3.00;1.10;;;9.00;99.90;;;;;;6198581;23;20575;-70
2021/05/05 01:38:59;;;;;;;4.93;1.50;;;9.00;99.90;;;;;;6175184;23;20205;-70
2021/05/05 01:41:26;;;;;;;2.10;1.20;;;9.00;99.90;;;;;;6201946;23;20532;-70
2021/05/05 01:43:51;;;;;;;1.20;0.87;;;9.00;99.90;;;;;;6195173;23;20657;-69
2021/05/05 01:46:23;;;;;;;2.60;1.33;;;9.00;99.90;;;;;;6172156;23;20594;-70
2021/05/05 01:48:49;;;;;;;2.73;1.20;;;9.10;99.90;;;;;;6169932;23;20192;-69
2021/05/05 01:51:14;;;;;;;2.43;1.23;;;9.00;99.90;;;;;;6198310;23;20535;-70
2021/05/05 01:53:40;;;;;;;6.63;1.23;;;9.00;99.90;;;;;;6197200;22;20204;-70
2021/05/05 01:56:06;;;;;;;1.40;1.20;;;9.00;99.90;;;;;;6202973;23;20177;-72
2021/05/05 01:58:33;;;;;;;2.10;1.30;;;9.00;99.90;;;;;;6165641;23;20612;-70
2021/05/05 02:01:00;;;;;;;2.60;1.27;;;9.00;99.90;;;;;;6171095;23;20214;-70
2021/05/05 02:03:26;;;;;;;3.03;1.47;;;9.10;99.90;;;;;;6173521;23;20595;-70
2021/05/05 02:05:52;;;;;;;6.10;3.60;;;9.00;99.90;;;;;;6199395;23;20631;-70
2021/05/05 02:08:18;;;;;;;2.17;1.17;;;9.00;99.90;;;;;;6191263;23;20247;-72
2021/05/05 02:10:45;;;;;;;1.60;1.10;;;9.00;99.90;;;;;;6200642;22;20574;-69
2021/05/05 02:13:12;;;;;;;2.03;1.13;;;8.90;99.90;;;;;;6201122;22;20200;-71
2021/05/05 02:15:37;;;;;;;2.40;1.20;;;8.90;99.90;;;;;;6167833;23;20937;-70
2021/05/05 02:18:06;;;;;;;1.70;1.27;;;8.80;99.90;;;;;;6200131;23;20546;-70
2021/05/05 02:20:31;;;;;;;3.27;1.13;;;8.80;99.90;;;;;;6202525;22;20574;-71
2021/05/05 02:22:57;;;;;;;1.33;1.03;;;8.80;99.90;;;;;;6198775;22;20671;-70
2021/05/05 02:25:23;;;;;;;2.93;1.23;;;8.80;99.90;;;;;;6202893;23;20218;-71
2021/05/05 02:27:50;;;;;;;1.53;0.90;;;8.80;99.90;;;;;;6197909;22;20190;-72
2021/05/05 02:30:16;;;;;;;2.00;1.17;;;8.90;99.90;;;;;;6176581;22;20586;-68
2021/05/05 02:32:44;;;;;;;2.40;1.60;;;8.90;99.90;;;;;;6197441;23;20670;-69
2021/05/05 02:35:11;;;;;;;1.97;1.17;;;8.80;99.90;;;;;;6195963;23;20603;-70
2021/05/05 02:37:37;;;;;;;1.83;1.20;;;8.80;99.90;;;;;;6198381;23;20555;-71
2021/05/05 02:40:05;;;;;;;2.47;1.33;;;8.80;99.90;;;;;;6169029;23;20574;-71
2021/05/05 02:42:33;;;;;;;2.70;1.63;;;8.80;99.90;;;;;;6190911;23;20816;-71
2021/05/05 02:45:00;;;;;;;2.37;1.47;;;8.70;99.90;;;;;;6195143;23;20648;-70
2021/05/05 02:47:26;;;;;;;2.17;1.30;;;8.70;99.90;;;;;;6197890;22;21119;-69
2021/05/05 02:49:51;;;;;;;2.23;1.50;;;8.70;99.90;;;;;;6196905;23;20536;-70
2021/05/05 02:52:17;;;;;;;2.23;1.33;;;8.70;99.90;;;;;;6196085;23;20523;-71
2021/05/05 02:54:43;;;;;;;4.83;1.40;;;8.70;99.90;;;;;;6193992;23;20204;-70
2021/05/05 02:57:12;;;;;;;2.20;1.40;;;8.80;99.90;;;;;;6176650;23;20228;-71
2021/05/05 02:59:37;;;;;;;1.90;1.60;;;8.70;99.90;;;;;;6205424;23;20543;-70
2021/05/05 03:02:05;;;;;;;4.33;1.83;;;8.70;99.90;;;;;;6199706;23;20923;-71
2021/05/05 03:04:31;;;;;;;1.57;1.23;;;8.70;99.90;;;;;;6199828;22;20204;-72
2021/05/05 03:06:56;;;;;;;4.70;1.67;;;8.70;99.90;;;;;;6196481;23;21103;-72
2021/05/05 03:09:26;;;;;;;1.70;1.60;;;8.70;99.90;;;;;;6200666;23;20163;-71
2021/05/05 03:11:59;;;;;;;1.93;1.13;;;8.70;99.90;;;;;;6177470;23;20211;-69
2021/05/05 03:14:26;;;;;;;4.87;1.57;;;8.70;99.90;;;;;;6202660;23;20591;-70
2021/05/05 03:16:56;;;;;;;1.97;1.40;;;8.70;99.90;;;;;;6200746;23;20634;-71
2021/05/05 03:19:22;;;;;;;3.37;1.30;;;8.70;99.90;;;;;;6173012;23;21228;-70
2021/05/05 03:21:48;;;;;;;3.23;1.90;;;8.60;99.90;;;;;;6174594;23;20567;-72
2021/05/05 03:24:16;;;;;;;2.30;1.43;;;8.60;99.90;;;;;;6201560;23;20694;-70
2021/05/05 03:26:42;;;;;;;2.27;1.53;;;8.60;99.90;;;;;;6202862;23;20631;-70
2021/05/05 03:29:08;;;;;;;2.57;1.40;;;8.60;99.90;;;;;;6200637;23;20693;-70
2021/05/05 03:31:34;;;;;;;2.67;1.50;;;8.60;99.90;;;;;;6203682;23;20167;-71
2021/05/05 03:34:03;;;;;;;3.10;1.60;;;8.60;99.90;;;;;;6172873;23;20200;-72
2021/05/05 03:36:29;;;;;;;4.20;1.53;;;8.50;99.90;;;;;;6195636;23;20567;-71
2021/05/05 03:38:54;;;;;;;6.20;1.70;;;8.50;99.90;;;;;;6174995;23;21178;-71
2021/05/05 03:41:20;;;;;;;3.37;1.50;;;8.50;99.90;;;;;;6197953;23;20161;-70
2021/05/05 03:43:45;;;;;;;4.93;1.60;;;8.50;99.90;;;;;;6195713;23;20713;-71
2021/05/05 03:46:11;;;;;;;3.00;1.57;;;8.50;99.90;;;;;;6199682;23;20267;-70
2021/05/05 03:48:37;;;;;;;2.30;1.23;;;8.50;99.90;;;;;;6197251;23;20185;-71
2021/05/05 03:51:04;;;;;;;4.67;2.33;;;8.50;99.90;;;;;;6202081;23;20532;-70
2021/05/05 03:53:30;;;;;;;2.10;1.30;;;8.40;99.90;;;;;;6174375;22;21164;-71
2021/05/05 03:55:56;;;;;;;5.20;1.60;;;8.40;99.90;;;;;;6174524;23;20607;-71
2021/05/05 03:58:22;;;;;;;3.77;1.67;;;8.40;99.90;;;;;;6203408;23;20587;-70
2021/05/05 04:00:48;;;;;;;3.63;1.53;;;8.40;99.90;;;;;;6198456;23;20536;-70
2021/05/05 04:03:13;;;;;;;4.73;1.97;;;8.50;99.90;;;;;;6196677;23;21274;-70
2021/05/05 04:05:39;;;;;;;2.30;1.20;;;8.50;99.90;;;;;;6197207;22;20189;-69
2021/05/05 04:08:06;;;;;;;3.57;1.57;;;8.50;99.90;;;;;;6201676;23;20156;-70
2021/05/05 04:10:32;;;;;;;3.63;1.50;;;8.40;99.90;;;;;;6173149;22;20161;-70
2021/05/05 04:12:57;;;;;;;4.97;1.40;;;8.40;99.90;;;;;;6174103;23;20643;-69
2021/05/05 04:15:27;;;;;;;1.93;1.60;;;8.30;99.90;;;;;;6198894;23;20560;-70
2021/05/05 04:17:52;;;;;;;5.00;1.53;;;8.30;99.90;;;;;;6201708;23;20156;-69
2021/05/05 04:20:19;;;;;;;2.50;1.60;;;8.40;99.90;;;;;;6200165;22;20559;-70
2021/05/05 04:22:45;;;;;;;3.30;1.70;;;8.30;99.90;;;;;;6170317;23;20248;-70
2021/05/05 04:25:14;;;;;;;2.97;1.53;;;8.30;99.90;;;;;;6172767;22;21150;-71
2021/05/05 04:27:41;;;;;;;2.00;1.60;;;8.30;99.90;;;;;;6202741;23;20168;-71
2021/05/05 04:30:08;;;;;;;5.07;1.97;;;8.10;99.90;;;;;;6199896;22;20583;-70
2021/05/05 04:32:34;;;;;;;3.40;2.00;;;8.10;99.90;;;;;;6197543;23;20551;-69
2021/05/05 04:34:59;;;;;;;4.10;1.80;;;8.10;99.90;;;;;;6199152;23;20651;-70
2021/05/05 04:37:27;;;;;;;3.93;2.03;;;8.10;99.90;;;;;;6199149;23;20171;-70
2021/05/05 04:39:55;;;;;;;3.40;1.70;;;8.10;99.90;;;;;;6197403;22;20199;-70
2021/05/05 04:42:21;;;;;;;1.93;1.40;;;8.00;99.90;;;;;;6170627;23;20602;-70
2021/05/05 04:44:46;;;;;;;5.30;1.87;;;8.00;99.90;;;;;;6198721;23;20591;-70
2021/05/05 04:47:12;;;;;;;4.23;1.80;;;8.00;99.90;;;;;;6199792;22;20237;-70
2021/05/05 04:49:37;;;;;;;3.07;1.67;;;8.00;99.90;;;;;;6200013;23;20164;-70
2021/05/05 04:52:03;;;;;;;3.83;2.07;;;8.00;99.90;;;;;;6191617;23;20675;-70
2021/05/05 04:54:29;;;;;;;3.73;1.20;;;8.10;99.90;;;;;;6179387;22;20564;-71
2021/05/05 04:56:54;;;;;;;1.97;1.27;;;8.10;99.90;;;;;;6192340;23;20532;-70
2021/05/05 04:59:20;;;;;;;8.03;1.80;;;8.10;99.90;;;;;;6200702;23;20152;-70
2021/05/05 05:01:45;;;;;;;2.90;2.40;;;8.10;99.90;;;;;;6198719;23;20681;-69
2021/05/05 05:04:11;;;;;;;2.70;1.50;;;8.10;99.90;;;;;;6198863;23;20212;-72
2021/05/05 05:06:37;;;;;;;2.50;1.30;;;8.10;99.90;;;;;;6168645;23;20184;-70
2021/05/05 05:09:05;;;;;;;3.67;1.70;;;8.10;99.90;;;;;;6200775;23;20278;-71
2021/05/05 05:11:31;;;;;;;6.07;1.80;;;8.20;99.90;;;;;;6180863;23;20160;-72
2021/05/05 05:13:56;;;;;;;4.43;1.77;;;8.20;99.90;;;;;;6193268;23;20699;-70
2021/05/05 05:16:24;;;;;;;3.00;1.60;;;8.20;99.90;;;;;;6190398;22;20247;-71
2021/05/05 05:18:50;;;;;;;3.87;1.57;;;8.20;99.90;;;;;;6193875;23;20537;-70
2021/05/05 05:21:16;;;;;;;5.67;1.60;;;8.30;99.90;;;;;;6194729;23;20938;-69
2021/05/05 05:23:43;;;;;;;8.40;1.80;;;8.20;99.90;;;;;;6165404;23;20216;-71
2021/05/05 05:26:09;;;;;;;5.70;1.60;;;8.20;99.90;;;;;;6193127;22;20607;-70
2021/05/05 05:28:34;;;;;;;4.80;1.77;;;8.20;99.90;;;;;;6183018;23;20639;-63
2021/05/05 05:31:00;;;;;;;4.10;1.70;;;8.30;99.90;;;;;;6164472;23;20165;-64
2021/05/05 05:33:26;;;;;;;4.63;1.70;;;8.20;99.90;;;;;;6163295;23;20550;-63
2021/05/05 05:35:55;;;;;;;5.13;2.50;;;8.30;99.90;;;;;;6175753;23;20248;-64
2021/05/05 05:38:22;;;;;;;5.47;2.00;;;8.30;99.90;;;;;;6189100;23;20539;-62
2021/05/05 05:40:48;;;;;;;1.90;1.50;;;8.40;99.90;;;;;;6167588;23;20559;-64
2021/05/05 05:43:14;;;;;;;4.40;1.67;;;8.40;99.90;;;;;;6169680;22;20744;-63
2021/05/05 05:45:40;;;;;;;2.47;1.50;;;8.50;99.90;;;;;;6196395;23;20216;-63
2021/05/05 05:48:06;;;;;;;3.80;1.50;;;8.40;99.90;;;;;;6191153;23;20960;-64
2021/05/05 05:50:32;;;;;;;2.57;1.47;;;8.50;99.90;;;;;;6166960;23;20432;-67
2021/05/05 05:52:58;;;;;;;2.60;1.83;;;8.60;99.90;;;;;;6195965;22;20556;-66
2021/05/05 05:55:29;;;;;;;3.47;1.77;;;8.60;99.90;;;;;;6195981;23;20650;-66
2021/05/05 05:57:56;;;;;;;3.17;1.80;;;8.60;99.90;;;;;;6165815;23;20594;-67
2021/05/05 06:00:22;;;;;;;2.37;2.00;;;8.60;99.90;;;;;;6198284;22;20543;-67
2021/05/05 06:02:47;;;;;;;3.90;1.80;;;8.60;99.90;;;;;;6170121;23;20611;-66
2021/05/05 06:05:13;;;;;;;3.77;2.13;;;8.60;99.90;;;;;;6183663;23;20743;-68
2021/05/05 06:07:41;;;;;;;4.63;1.80;;;8.60;99.90;;;;;;6167017;23;20161;-70
2021/05/05 06:10:08;;;;;;;4.90;2.10;;;8.60;99.90;;;;;;6176087;23;20815;-65
2021/05/05 06:12:34;;;;;;;3.20;2.30;;;8.60;99.90;;;;;;6202895;23;20554;-67
2021/05/05 06:15:00;;;;;;;4.57;2.00;;;8.50;99.90;;;;;;6199464;22;20698;-67
2021/05/05 06:17:26;;;;;;;5.30;1.97;;;8.60;99.90;;;;;;6198856;23;20630;-67
2021/05/05 06:19:51;;;;;;;6.30;2.10;;;8.60;99.90;;;;;;6200151;23;20182;-67
2021/05/05 06:22:18;;;;;;;3.63;1.77;;;8.60;99.90;;;;;;6200845;23;21100;-67
2021/05/05 06:24:44;;;;;;;3.40;1.73;;;8.50;99.90;;;;;;6201192;22;20200;-68
2021/05/05 06:27:09;;;;;;;6.63;2.23;;;8.50;99.90;;;;;;6200156;22;20570;-66
2021/05/05 06:29:37;;;;;;;4.13;2.00;;;8.50;99.90;;;;;;6177322;23;20587;-68
2021/05/05 06:32:03;;;;;;;4.13;1.80;;;8.50;99.90;;;;;;6189981;23;20145;-63
2021/05/05 06:34:31;;;;;;;1.90;1.67;;;8.40;99.90;;;;;;6193367;23;20603;-64
2021/05/05 06:36:57;;;;;;;4.63;1.63;;;8.40;99.90;;;;;;6195162;22;20176;-61
2021/05/05 06:39:23;;;;;;;3.80;2.00;;;8.40;99.90;;;;;;6199367;23;20896;-63
2021/05/05 06:41:48;;;;;;;4.40;1.83;;;8.40;99.90;;;;;;6197424;23;20652;-63
2021/05/05 06:44:14;;;;;;;5.40;1.97;;;8.40;99.90;;;;;;6197190;22;20212;-63
2021/05/05 06:46:48;;;;;;;5.17;1.90;;;8.40;99.90;;;;;;6191625;23;20177;-63
2021/05/05 06:49:14;;;;;;;3.80;1.87;;;8.40;99.90;;;;;;6199895;22;20533;-63
2021/05/05 06:51:40;;;;;;;4.43;1.80;;;8.30;99.90;;;;;;6201253;22;20559;-67
2021/05/05 06:54:07;;;;;;;2.83;1.73;;;8.40;99.90;;;;;;6172265;22;20204;-63
2021/05/05 06:56:33;;;;;;;2.77;1.73;;;8.40;99.90;;;;;;6171115;23;20979;-63
2021/05/05 06:58:58;;;;;;;3.30;1.87;;;8.30;99.90;;;;;;6196976;23;20547;-63
2021/05/05 07:01:24;;;;;;;3.97;1.60;;;8.30;99.90;;;;;;6196439;22;20160;-63
2021/05/05 07:03:49;;;;;;;3.30;1.70;;;8.20;99.90;;;;;;6168315;23;20212;-62
2021/05/05 07:06:15;;;;;;;3.90;1.90;;;8.20;99.90;;;;;;6203114;23;20263;-63
2021/05/05 07:08:41;;;;;;;2.40;1.60;;;8.20;99.90;;;;;;6201021;22;20164;-63
2021/05/05 07:11:07;;;;;;;2.70;1.77;;;8.20;99.90;;;;;;6204475;23;20191;-64
2021/05/05 07:13:33;;;;;;;3.00;1.83;;;8.20;99.90;;;;;;6178742;23;20280;-63
2021/05/05 07:15:59;;;;;;;4.23;1.80;;;8.20;99.90;;;;;;6206816;22;20658;-63
2021/05/05 07:18:24;;;;;;;1.80;1.53;;;8.20;99.90;;;;;;6191544;23;21104;-63
2021/05/05 07:20:50;;;;;;;3.10;1.87;;;8.10;99.90;;;;;;6218883;23;20168;-62
2021/05/05 07:23:16;;;;;;;3.67;1.60;;;8.10;99.90;;;;;;6214325;23;20233;-64
2021/05/05 07:25:44;;;;;;;4.50;2.40;;;8.00;99.90;;;;;;6215738;23;20275;-64
2021/05/05 07:28:10;;;;;;;3.33;2.10;;;8.00;99.90;;;;;;6217271;23;20556;-62
2021/05/05 07:30:36;;;;;;;3.43;1.70;;;7.90;99.90;;;;;;6215151;23;20559;-62
2021/05/05 07:33:02;;;;;;;3.07;1.53;;;8.00;99.90;;;;;;6203397;23;20167;-62
2021/05/05 07:35:29;;;;;;;3.30;1.90;;;8.00;99.90;;;;;;6202579;23;20674;-61
2021/05/05 07:48:47;;;;;;;2.60;1.60;;;7.80;99.90;;;;;;6201568;23;20499;-62
2021/05/05 07:51:15;;;;;;;2.50;1.57;;;7.80;99.90;;;;;;6178682;22;20558;-64
2021/05/05 07:53:40;;;;;;;2.70;1.70;;;7.70;99.90;;;;;;6202181;23;20721;-64
2021/05/05 07:56:06;;;;;;;2.93;1.80;;;7.70;99.90;;;;;;6200435;23;20706;-64
2021/05/05 07:58:34;;;;;;;2.63;1.63;;;7.70;99.90;;;;;;6199391;22;20160;-63
2021/05/05 08:01:00;;;;;;;3.20;1.60;;;7.70;99.90;;;;;;6203478;23;20144;-63
2021/05/05 08:03:26;;;;;;;3.33;1.97;;;7.70;99.90;;;;;;6198740;23;20606;-64
2021/05/05 08:05:51;;;;;;;2.90;1.60;;;7.80;99.90;;;;;;6200357;22;20928;-64
2021/05/05 08:08:17;;;;;;;3.40;1.53;;;7.90;99.90;;;;;;6175284;23;20374;-64
2021/05/05 08:10:43;;;;;;;1.97;1.60;;;7.80;99.90;;;;;;6202372;23;20190;-64
2021/05/05 08:13:08;;;;;;;2.23;1.60;;;7.90;99.90;;;;;;6176128;23;20462;-64
2021/05/05 08:15:35;;;;;;;8.60;2.73;;;7.90;99.90;;;;;;6173968;23;20226;-64
2021/05/05 08:18:03;;;;;;;3.43;1.60;;;8.00;99.90;;;;;;6175139;22;20569;-64
2021/05/05 08:20:28;;;;;;;3.20;2.10;;;8.00;99.90;;;;;;6203722;23;20542;-63
2021/05/05 08:22:54;;;;;;;3.40;1.63;;;8.10;99.90;;;;;;6173793;23;20595;-64
2021/05/05 08:25:20;;;;;;;3.20;2.40;;;8.20;99.90;;;;;;6201238;23;20168;-63
2021/05/05 08:27:46;;;;;;;2.93;1.80;;;8.20;99.90;;;;;;6176668;23;20160;-64
2021/05/05 08:30:12;;;;;;;7.90;2.30;;;8.30;99.90;;;;;;6202933;22;20244;-62
2021/05/05 08:32:38;;;;;;;3.30;2.43;;;8.30;99.90;;;;;;6203819;23;21057;-63
2021/05/05 08:35:04;;;;;;;5.30;2.40;;;8.30;99.90;;;;;;6201513;23;20606;-64
2021/05/05 08:37:33;;;;;;;4.00;2.73;;;8.30;99.90;;;;;;6201515;23;20411;-64
2021/05/05 08:40:01;;;;;;;4.90;2.30;;;8.30;99.90;;;;;;6203748;23;20559;-64
2021/05/05 08:42:26;;;;;;;5.10;2.40;;;8.20;99.90;;;;;;6172456;23;20603;-64
2021/05/05 08:44:53;;;;;;;3.70;2.37;;;8.30;99.90;;;;;;6175361;23;20587;-63
2021/05/05 08:47:19;;;;;;;5.07;2.27;;;8.20;99.90;;;;;;6202165;22;20180;-64
2021/05/05 08:49:44;;;;;;;3.70;2.00;;;8.20;99.90;;;;;;6202308;23;21038;-63
2021/05/05 08:52:10;;;;;;;5.03;2.70;;;8.20;99.90;;;;;;6176845;23;20168;-63
2021/05/05 08:54:36;;;;;;;6.80;3.20;;;8.20;99.90;;;;;;6202751;23;20515;-64
2021/05/05 08:57:03;;;;;;;5.97;2.40;;;8.20;99.90;;;;;;6201636;23;20620;-64
2021/05/05 08:59:32;;;;;;;6.20;2.20;;;8.20;99.90;;;;;;6203572;23;20152;-68
2021/05/05 09:01:58;;;;;;;7.70;3.70;;;8.10;99.90;;;;;;6200744;22;20660;-71
2021/05/05 09:04:26;;;;;;;7.03;3.00;;;8.00;99.90;;;;;;6194555;23;20947;-66
2021/05/05 09:06:57;;;;;;;7.30;3.13;;;8.10;99.90;;;;;;6201441;23;20919;-68
2021/05/05 09:09:36;;;;;;;4.03;2.83;;;8.10;99.90;;;;;;6202540;23;20532;-68
2021/05/05 09:12:20;;;;;;;7.03;2.67;;;8.20;99.90;;;;;;6175710;22;20555;-68
2021/05/05 09:15:01;;;;;;;6.57;2.87;;;8.20;99.90;;;;;;6203270;23;20622;-67
2021/05/05 09:17:36;;;;;;;4.83;3.03;;;8.20;99.90;;;;;;6199614;22;20555;-66
2021/05/05 09:20:04;;;;;;;7.10;2.47;;;8.30;99.90;;;;;;6172026;23;21014;-69
2021/05/05 09:22:40;;;;;;;7.57;2.40;;;8.30;99.90;;;;;;6197875;23;21111;-67
2021/05/05 09:25:09;;;;;;;4.83;2.33;;;8.30;99.90;;;;;;6191717;23;21570;-67
2021/05/05 09:27:35;;;;;;;6.77;2.00;;;8.40;99.90;;;;;;6174455;23;20556;-67
2021/05/05 09:30:06;;;;;;;3.57;2.03;;;8.40;99.90;;;;;;6201520;23;20570;-69
2021/05/05 09:32:50;;;;;;;4.70;2.07;;;8.40;99.90;;;;;;6174881;23;20578;-69
2021/05/05 09:35:17;;;;;;;4.27;1.63;;;8.50;99.90;;;;;;6202927;23;20655;-67
2021/05/05 09:37:53;;;;;;;3.07;1.83;;;8.50;99.90;;;;;;6202378;23;20531;-67
2021/05/05 09:40:19;;;;;;;2.87;2.00;;;8.50;99.90;;;;;;6202093;23;20850;-66
2021/05/05 09:42:44;;;;;;;5.10;2.27;;;8.60;99.90;;;;;;6203857;23;20583;-66
2021/05/05 09:45:14;;;;;;;5.10;1.93;;;8.60;99.90;;;;;;6199576;23;20192;-69
2021/05/05 09:47:54;;;;;;;8.00;2.60;;;8.60;99.90;;;;;;6197951;23;20159;-69
2021/05/05 09:50:29;;;;;;;4.60;1.80;;;8.60;99.90;;;;;;6169856;23;20571;-68
2021/05/05 09:53:25;;;;;;;2.47;1.77;;;8.60;99.90;;;;;;6191070;23;21291;-67
2021/05/05 09:55:54;;;;;;;5.80;2.00;;;8.60;99.90;;;;;;6165273;23;20607;-67
2021/05/05 09:58:28;;;;;;;4.00;2.00;;;8.60;99.90;;;;;;6200976;22;20531;-69
2021/05/05 10:01:03;;;;;;;3.80;2.07;;;8.60;99.90;;;;;;6193812;23;20494;-68
2021/05/05 10:03:38;;;;;;;2.17;1.63;;;8.60;99.90;;;;;;6191941;23;20751;-67
2021/05/05 10:06:27;;;;;;;4.13;2.00;;;8.70;99.90;;;;;;6191457;23;20639;-68
2021/05/05 10:09:10;;;;;;;4.10;2.30;;;8.70;99.90;;;;;;6195212;23;20869;-68
2021/05/05 10:11:42;;;;;;;6.57;3.10;;;8.70;99.90;;;;;;6140171;23;20910;-64
2021/05/05 10:14:09;;;;;;;7.43;2.47;;;8.80;99.90;;;;;;6195151;23;20591;-64
2021/05/05 10:16:42;;;;;;;2.80;2.37;;;8.70;99.90;;;;;;6197394;23;20563;-64
2021/05/05 10:19:13;;;;;;;5.80;2.80;;;8.80;99.90;;;;;;6175154;23;20571;-64
2021/05/05 10:21:43;;;;;;;5.00;2.33;;;8.80;99.90;;;;;;6200392;23;20543;-63
2021/05/05 10:24:10;;;;;;;4.10;2.10;;;8.90;99.90;;;;;;6174916;23;20947;-63
2021/05/05 10:26:39;;;;;;;2.40;1.73;;;8.90;99.90;;;;;;6195834;23;20640;-64
2021/05/05 10:29:05;;;;;;;2.17;1.80;;;8.90;99.90;;;;;;6200712;23;20609;-64
2021/05/05 10:31:34;;;;;;;4.03;1.80;;;9.00;99.90;;;;;;6203069;22;20543;-64
2021/05/05 10:34:01;;;;;;;3.17;1.50;;;9.20;99.90;;;;;;6170794;22;20920;-64
2021/05/05 10:36:55;;;;;;;4.80;1.70;;;9.30;99.90;;;;;;6201326;23;20670;-65
2021/05/05 10:39:25;;;;;;;2.80;1.70;;;9.40;99.90;;;;;;6197912;23;20543;-65
2021/05/05 10:42:03;;;;;;;6.43;1.70;;;9.50;99.90;;;;;;6201016;22;20567;-65
2021/05/05 10:44:55;;;;;;;3.97;2.20;;;9.50;99.90;;;;;;6170624;23;20633;-65
2021/05/05 10:47:35;;;;;;;2.80;1.73;;;9.70;99.90;;;;;;6194992;23;21380;-66
2021/05/05 10:50:05;;;;;;;2.33;1.90;;;9.70;99.90;;;;;;6195799;22;20935;-65
2021/05/05 10:52:54;;;;;;;2.77;1.47;;;9.80;99.90;;;;;;6202243;22;21446;-64
2021/05/05 10:55:37;;;;;;;3.50;1.70;;;9.90;99.90;;;;;;6199514;23;20595;-65
2021/05/05 10:58:05;;;;;;;3.43;1.53;;;9.90;99.90;;;;;;6203288;23;20812;-64
2021/05/05 11:00:59;;;;;;;2.50;1.80;;;9.90;99.90;;;;;;6174976;23;21162;-65
2021/05/05 11:03:46;;;;;;;6.53;1.90;;;10.00;99.90;;;;;;6174331;23;20702;-65
2021/05/05 11:06:34;;;;;;;2.87;2.17;;;9.90;99.90;;;;;;6176359;23;21135;-64
2021/05/05 11:11:44;;;;;;;2.43;1.90;;;9.90;99.90;;;;;;6217089;23;20587;-64
2021/05/05 11:14:30;;;;;;;4.30;1.97;;;10.00;99.90;;;;;;6188583;23;20604;-64
2021/05/05 11:17:11;;;;;;;2.30;2.10;;;10.00;99.90;;;;;;6201411;22;21126;-62
2021/05/05 11:19:42;;;;;;;5.50;1.93;;;9.90;99.90;;;;;;6199619;23;20547;-63
2021/05/05 11:22:33;;;;;;;3.37;1.80;;;9.90;99.90;;;;;;6172629;23;20559;-63
2021/05/05 11:25:16;;;;;;;2.23;1.77;;;9.80;99.90;;;;;;6187782;23;20728;-62
2021/05/05 11:27:51;;;;;;;2.13;1.50;;;9.60;99.90;;;;;;6199200;23;20583;-62
2021/05/05 11:30:33;;;;;;;1.53;1.43;;;9.70;99.90;;;;;;6121299;23;20740;-71
2021/05/05 11:32:59;;;;;;;1.90;1.70;;;9.60;99.90;;;;;;6106786;22;20549;-70
2021/05/05 11:35:29;;;;;;;2.50;1.43;;;9.50;99.90;;;;;;6119129;23;20574;-71
2021/05/05 11:38:19;;;;;;;1.63;1.53;;;9.50;99.90;;;;;;6139181;22;20503;-71
2021/05/05 11:40:52;;;;;;;2.73;1.40;;;9.40;99.90;;;;;;6140159;23;20509;-71
2021/05/05 11:43:20;;;;;;;3.40;1.40;;;9.40;99.90;;;;;;6139585;22;21024;-71
2021/05/05 11:45:51;;;;;;;1.40;1.30;;;9.40;99.90;;;;;;6160835;23;20593;-72
2021/05/05 11:48:32;;;;;;;2.53;1.60;;;9.40;99.90;;;;;;6139135;23;20751;-71
2021/05/05 11:50:58;;;;;;;2.23;1.77;;;9.40;99.90;;;;;;6162740;23;20679;-71
2021/05/05 11:53:32;;;;;;;2.43;1.93;;;9.40;99.90;;;;;;6141257;22;21605;-72
2021/05/05 11:56:00;;;;;;;2.90;1.80;;;9.30;99.90;;;;;;6137079;23;20584;-71
2021/05/05 11:58:26;;;;;;;1.60;1.50;;;9.30;99.90;;;;;;6163121;23;20573;-71
2021/05/05 12:00:52;;;;;;;1.83;1.73;;;9.30;99.90;;;;;;6143495;23;21030;-72
2021/05/05 12:03:24;;;;;;;2.40;1.60;;;9.20;99.90;;;;;;6158802;22;20212;-70
2021/05/05 12:05:51;;;;;;;3.60;2.20;;;9.20;99.90;;;;;;6162206;23;20593;-69
2021/05/05 12:08:27;;;;;;;6.77;2.07;;;9.20;99.90;;;;;;6137313;23;20545;-71
2021/05/05 12:10:54;;;;;;;1.87;1.30;;;9.10;99.90;;;;;;6165525;23;20581;-72
2021/05/05 12:13:28;;;;;;;2.20;1.33;;;8.90;99.90;;;;;;6164004;22;20589;-75
2021/05/05 12:16:14;;;;;;;2.20;1.30;;;8.80;99.90;;;;;;6139237;23;20689;-73
2021/05/05 12:18:45;;;;;;;1.50;1.17;;;8.80;99.90;;;;;;6139736;23;21091;-72
2021/05/05 12:21:16;;;;;;;3.37;1.20;;;8.80;99.90;;;;;;6135074;22;20583;-74
2021/05/05 12:23:50;;;;;;;1.70;1.30;;;8.90;99.90;;;;;;6143267;22;20616;-71
2021/05/05 12:26:25;;;;;;;1.60;1.23;;;9.00;99.90;;;;;;6143230;23;20654;-73
2021/05/05 12:28:53;;;;;;;2.53;2.00;;;9.00;99.90;;;;;;6137830;22;20573;-73
2021/05/05 12:31:21;;;;;;;2.87;1.50;;;9.10;99.90;;;;;;6160098;23;20668;-76
2021/05/05 12:33:48;;;;;;;1.83;1.43;;;9.20;99.90;;;;;;6135533;22;20608;-75
2021/05/05 12:36:19;;;;;;;2.00;1.50;;;9.30;99.90;;;;;;6136825;23;20917;-75
2021/05/05 12:38:47;;;;;;;1.97;1.43;;;9.30;99.90;;;;;;6139944;23;20533;-72
2021/05/05 12:41:24;;;;;;;2.03;1.70;;;9.40;99.90;;;;;;6137312;23;20568;-74
2021/05/05 12:43:58;;;;;;;2.73;1.43;;;9.50;99.90;;;;;;6136640;22;20715;-73
2021/05/05 12:46:27;;;;;;;2.87;1.80;;;9.50;99.90;;;;;;6134574;23;20580;-71
2021/05/05 12:48:54;;;;;;;1.83;1.70;;;9.50;99.90;;;;;;6139888;23;20607;-73
2021/05/05 12:51:22;;;;;;;3.30;1.60;;;9.50;99.90;;;;;;6162828;23;20573;-71
2021/05/05 12:53:52;;;;;;;7.30;1.90;;;9.50;99.90;;;;;;6135988;22;20608;-72
2021/05/05 12:56:20;;;;;;;3.57;2.00;;;9.50;99.90;;;;;;6133551;23;20589;-71
2021/05/05 12:58:48;;;;;;;3.00;2.00;;;9.40;99.90;;;;;;6139355;22;20636;-73
2021/05/05 13:01:15;;;;;;;3.47;2.53;;;9.40;99.90;;;;;;6139323;23;20891;-72
2021/05/05 13:03:42;;;;;;;1.63;1.53;;;9.30;99.90;;;;;;6159656;22;20798;-75
2021/05/05 13:06:12;;;;;;;2.73;1.83;;;9.30;99.90;;;;;;6139065;23;21292;-72
2021/05/05 13:09:03;;;;;;;2.30;1.33;;;9.20;99.90;;;;;;6165811;23;20581;-72
2021/05/05 13:11:37;;;;;;;4.20;1.87;;;9.20;99.90;;;;;;6138536;22;20553;-71
2021/05/05 13:14:11;;;;;;;3.37;1.90;;;9.20;99.90;;;;;;6137547;22;20617;-72
2021/05/05 13:30:45;;;;;;;5.47;2.10;;;9.20;99.90;;;;;;6139845;23;21081;-75
2021/05/05 13:33:21;;;;;;;5.23;2.00;;;9.10;99.90;;;;;;6137213;22;20654;-74